createdAt,value
2018-10-01T00:00:20.508Z,10.20
2018-10-01T00:02:48.923Z,10.30
2018-10-01T00:05:17.292Z,10.30
2018-10-01T00:07:45.621Z,10.30
2018-10-01T00:10:14.012Z,10.40
2018-10-01T00:12:42.347Z,10.50
2018-10-01T00:15:10.713Z,10.50
2018-10-01T00:17:39.065Z,10.60
2018-10-01T00:20:12.872Z,10.60
2018-10-01T00:22:46.624Z,10.60
2018-10-01T00:25:15.060Z,10.60
2018-10-01T00:27:43.404Z,10.70
2018-10-01T00:30:11.772Z,10.70
2018-10-01T00:32:40.130Z,10.70
2018-10-01T00:35:08.488Z,10.80
2018-10-01T00:37:36.856Z,10.80
2018-10-01T00:40:05.280Z,10.80
2018-10-01T00:42:33.796Z,10.90
2018-10-01T00:45:02.180Z,10.80
2018-10-01T00:47:30.520Z,10.90
2018-10-01T00:49:58.897Z,10.90
2018-10-01T00:52:27.255Z,10.90
2018-10-01T00:54:55.640Z,11.00
2018-10-01T00:57:23.996Z,11.00
2018-10-01T00:59:52.356Z,11.10
2018-10-01T01:02:20.707Z,11.00
2018-10-01T01:04:49.060Z,11.00
2018-10-01T01:07:17.457Z,11.00
2018-10-01T01:09:45.844Z,11.10
2018-10-01T01:12:14.188Z,11.10
2018-10-01T01:14:42.543Z,11.10
2018-10-01T01:17:10.886Z,11.10
2018-10-01T01:19:39.245Z,11.10
2018-10-01T01:22:07.704Z,11.10
2018-10-01T01:24:36.068Z,11.10
2018-10-01T01:27:04.400Z,11.10
2018-10-01T01:29:32.756Z,11.10
2018-10-01T01:32:01.103Z,11.10
2018-10-01T01:34:29.460Z,11.00
2018-10-01T01:36:57.988Z,11.00
2018-10-01T01:39:26.347Z,11.00
2018-10-01T01:41:54.709Z,11.00
2018-10-01T01:44:23.072Z,11.00
2018-10-01T01:46:51.431Z,10.90
2018-10-01T01:49:19.764Z,10.90
2018-10-01T01:51:48.125Z,10.80
2018-10-01T01:54:16.472Z,10.80
2018-10-01T01:56:44.836Z,10.80
2018-10-01T01:59:13.247Z,10.70
2018-10-01T02:01:41.612Z,10.70
2018-10-01T02:04:09.948Z,10.70
2018-10-01T02:06:38.308Z,10.60
2018-10-01T02:09:08.324Z,10.60
2018-10-01T02:11:36.707Z,10.60
2018-10-01T02:14:05.039Z,10.50
2018-10-01T02:16:33.392Z,10.50
2018-10-01T02:19:01.715Z,10.40
2018-10-01T02:21:30.080Z,10.40
2018-10-01T02:23:58.410Z,10.40
2018-10-01T02:26:26.787Z,10.40
2018-10-01T02:28:55.110Z,10.30
2018-10-01T02:31:23.455Z,10.30
2018-10-01T02:33:51.788Z,10.30
2018-10-01T02:36:20.157Z,10.30
2018-10-01T02:38:48.487Z,10.20
2018-10-01T02:41:16.847Z,10.20
2018-10-01T02:43:45.177Z,10.20
2018-10-01T02:46:13.545Z,10.20
2018-10-01T02:48:41.874Z,10.20
2018-10-01T02:51:10.224Z,10.20
2018-10-01T02:53:43.876Z,10.20
2018-10-01T02:56:12.289Z,10.20
2018-10-01T02:58:40.617Z,10.10
2018-10-01T03:01:08.980Z,10.10
2018-10-01T03:03:37.344Z,10.10
2018-10-01T03:06:05.705Z,10.10
2018-10-01T03:08:34.236Z,10.10
2018-10-01T03:11:02.627Z,10.10
2018-10-01T03:13:30.976Z,10.10
2018-10-01T03:15:59.340Z,10.10
2018-10-01T03:18:27.801Z,10.10
2018-10-01T03:20:56.184Z,10.00
2018-10-01T03:23:24.541Z,10.00
2018-10-01T03:25:52.897Z,10.00
2018-10-01T03:28:21.225Z,10.00
2018-10-01T03:30:49.581Z,10.00
2018-10-01T03:33:17.909Z,9.90
2018-10-01T03:35:46.270Z,9.90
2018-10-01T03:38:14.591Z,9.90
2018-10-01T03:40:42.936Z,9.90
2018-10-01T03:43:11.257Z,9.90
2018-10-01T03:45:39.595Z,9.90
2018-10-01T03:48:07.976Z,9.90
2018-10-01T03:50:36.329Z,9.80
2018-10-01T03:53:04.717Z,9.80
2018-10-01T03:55:33.027Z,9.80
2018-10-01T03:58:01.398Z,9.80
2018-10-01T04:00:29.724Z,9.80
2018-10-01T04:02:58.160Z,9.80
2018-10-01T04:05:26.696Z,9.70
2018-10-01T04:07:55.068Z,9.70
2018-10-01T04:10:23.424Z,9.70
2018-10-01T04:12:51.845Z,9.70
2018-10-01T04:15:20.172Z,9.70
2018-10-01T04:18:00.940Z,9.60
2018-10-01T04:20:29.344Z,9.60
2018-10-01T04:22:57.696Z,9.60
2018-10-01T04:25:26.026Z,9.60
2018-10-01T04:27:54.379Z,9.50
2018-10-01T04:30:22.723Z,9.60
2018-10-01T04:32:51.187Z,9.50
2018-10-01T04:35:19.544Z,9.50
2018-10-01T04:37:47.907Z,9.50
2018-10-01T04:40:16.236Z,9.40
2018-10-01T04:42:44.592Z,9.40
2018-10-01T04:45:12.905Z,9.40
2018-10-01T04:47:41.260Z,9.40
2018-10-01T04:50:09.608Z,9.40
2018-10-01T04:52:37.972Z,9.30
2018-10-01T04:55:06.300Z,9.30
2018-10-01T04:57:34.760Z,9.30
2018-10-01T05:00:03.161Z,9.30
2018-10-01T05:02:31.532Z,9.30
2018-10-01T05:04:59.891Z,9.30
2018-10-01T05:07:28.262Z,9.30
2018-10-01T05:09:56.624Z,9.30
2018-10-01T05:12:24.992Z,9.20
2018-10-01T05:14:53.383Z,9.20
2018-10-01T05:17:21.741Z,9.20
2018-10-01T05:19:50.105Z,9.20
2018-10-01T05:22:18.468Z,9.20
2018-10-01T05:24:46.801Z,9.20
2018-10-01T05:27:15.251Z,9.20
2018-10-01T05:29:43.556Z,9.20
2018-10-01T05:32:11.928Z,9.20
2018-10-01T05:34:40.353Z,9.20
2018-10-01T05:37:08.748Z,9.10
2018-10-01T05:39:37.115Z,9.10
2018-10-01T05:42:05.521Z,9.10
2018-10-01T05:44:33.847Z,9.00
2018-10-01T05:47:02.217Z,9.00
2018-10-01T05:49:30.580Z,9.00
2018-10-01T05:51:58.949Z,9.00
2018-10-01T05:54:27.291Z,8.90
2018-10-01T05:56:55.636Z,8.90
2018-10-01T05:59:24.016Z,8.80
2018-10-01T06:01:52.372Z,8.80
2018-10-01T06:04:20.733Z,8.80
2018-10-01T06:06:49.069Z,8.80
2018-10-01T06:09:17.470Z,8.80
2018-10-01T06:11:45.840Z,8.80
2018-10-01T06:14:14.167Z,8.70
2018-10-01T06:16:42.496Z,8.70
2018-10-01T06:19:10.879Z,8.70
2018-10-01T06:21:39.235Z,8.70
2018-10-01T06:24:07.672Z,8.60
2018-10-01T06:26:36.009Z,8.60
2018-10-01T06:29:04.382Z,8.60
2018-10-01T06:31:32.706Z,8.60
2018-10-01T06:34:01.076Z,8.60
2018-10-01T06:36:29.458Z,8.60
2018-10-01T06:38:57.824Z,8.60
2018-10-01T06:41:26.155Z,8.60
2018-10-01T06:43:54.522Z,8.60
2018-10-01T06:46:22.856Z,8.60
2018-10-01T06:48:51.223Z,8.60
2018-10-01T06:51:19.610Z,8.60
2018-10-01T06:53:47.968Z,8.60
2018-10-01T06:56:16.296Z,8.60
2018-10-01T06:58:44.651Z,8.60
2018-10-01T07:01:13.024Z,8.60
2018-10-01T07:03:41.364Z,8.60
2018-10-01T07:06:09.762Z,8.70
2018-10-01T07:08:38.165Z,8.70
2018-10-01T07:11:06.544Z,8.70
2018-10-01T07:13:34.914Z,8.70
2018-10-01T07:16:03.260Z,8.70
2018-10-01T07:18:31.625Z,8.70
2018-10-01T07:20:59.953Z,8.70
2018-10-01T07:23:28.558Z,8.70
2018-10-01T07:25:56.736Z,8.80
2018-10-01T07:28:25.092Z,8.80
2018-10-01T07:30:53.433Z,8.80
2018-10-01T07:33:21.800Z,8.80
2018-10-01T07:35:50.136Z,8.80
2018-10-01T07:38:18.576Z,8.80
2018-10-01T07:40:46.933Z,8.90
2018-10-01T07:43:15.302Z,8.90
2018-10-01T07:45:43.666Z,8.90
2018-10-01T07:48:12.052Z,8.90
2018-10-01T07:50:40.466Z,8.90
2018-10-01T07:53:08.736Z,8.90
2018-10-01T07:55:37.109Z,8.90
2018-10-01T07:58:05.489Z,8.90
2018-10-01T08:00:33.868Z,9.00
2018-10-01T08:03:02.226Z,9.00
2018-10-01T08:05:30.589Z,9.00
2018-10-01T08:07:59.090Z,9.10
2018-10-01T08:10:27.463Z,9.10
2018-10-01T08:12:55.799Z,9.20
2018-10-01T08:15:24.172Z,9.20
2018-10-01T08:17:52.510Z,9.30
2018-10-01T08:20:20.916Z,9.30
2018-10-01T08:22:49.256Z,9.30
2018-10-01T08:25:17.617Z,9.30
2018-10-01T08:27:45.971Z,9.30
2018-10-01T08:30:14.344Z,9.30
2018-10-01T08:32:42.697Z,9.30
2018-10-01T08:35:11.108Z,9.20
2018-10-01T08:37:39.460Z,9.20
2018-10-01T08:40:07.836Z,9.20
2018-10-01T08:42:36.204Z,9.20
2018-10-01T08:45:04.712Z,9.20
2018-10-01T08:47:33.105Z,9.10
2018-10-01T08:50:10.892Z,9.20
2018-10-01T08:52:42.557Z,9.10
2018-10-01T08:55:10.980Z,9.10
2018-10-01T08:57:39.316Z,9.10
2018-10-01T09:00:07.685Z,9.10
2018-10-01T09:02:36.017Z,9.10
2018-10-01T09:05:04.600Z,9.10
2018-10-01T09:07:32.894Z,9.00
2018-10-01T09:10:01.245Z,9.10
2018-10-01T09:12:29.579Z,9.10
2018-10-01T09:14:58.038Z,9.20
2018-10-01T09:17:26.382Z,9.20
2018-10-01T09:19:54.720Z,9.20
2018-10-01T09:22:23.053Z,9.20
2018-10-01T09:24:51.416Z,9.10
2018-10-01T09:27:19.748Z,9.10
2018-10-01T09:29:48.144Z,9.20
2018-10-01T09:32:16.516Z,9.10
2018-10-01T09:34:44.873Z,9.20
2018-10-01T09:37:13.216Z,9.20
2018-10-01T09:39:41.592Z,9.30
2018-10-01T09:42:09.971Z,9.30
2018-10-01T09:44:38.301Z,9.30
2018-10-01T09:47:06.747Z,9.40
2018-10-01T09:49:35.069Z,9.30
2018-10-01T09:52:03.483Z,9.30
2018-10-01T09:54:31.792Z,9.30
2018-10-01T09:57:00.151Z,9.40
2018-10-01T09:59:28.486Z,9.40
2018-10-01T10:01:56.861Z,9.40
2018-10-01T10:04:25.317Z,9.40
2018-10-01T10:06:53.593Z,9.40
2018-10-01T10:09:21.924Z,9.50
2018-10-01T10:11:50.276Z,9.50
2018-10-01T10:14:18.666Z,9.60
2018-10-01T10:16:47.185Z,9.70
2018-10-01T10:19:15.366Z,9.70
2018-10-01T10:21:43.724Z,9.70
2018-10-01T10:24:12.050Z,9.70
2018-10-01T10:26:40.417Z,9.70
2018-10-01T10:29:08.784Z,9.70
2018-10-01T10:31:37.991Z,9.70
2018-10-01T10:34:06.360Z,9.70
2018-10-01T10:36:34.700Z,9.80
2018-10-01T10:39:03.112Z,9.80
2018-10-01T10:41:31.470Z,9.80
2018-10-01T10:43:59.844Z,9.80
2018-10-01T10:46:28.172Z,9.80
2018-10-01T10:48:56.496Z,9.90
2018-10-01T10:51:24.920Z,9.90
2018-10-01T10:53:53.313Z,9.90
2018-10-01T10:56:21.749Z,9.90
2018-10-01T10:58:50.036Z,9.90
2018-10-01T11:01:18.440Z,9.90
2018-10-01T11:03:46.772Z,9.90
2018-10-01T11:06:15.127Z,10.00
2018-10-01T11:08:43.457Z,10.00
2018-10-01T11:11:11.824Z,10.00
2018-10-01T11:13:40.168Z,10.00
2018-10-01T11:16:08.548Z,10.00
2018-10-01T11:18:37.064Z,10.10
2018-10-01T11:21:05.473Z,10.20
2018-10-01T11:23:33.730Z,10.30
2018-10-01T11:26:02.092Z,10.30
2018-10-01T11:28:30.416Z,10.40
2018-10-01T11:30:58.784Z,10.40
2018-10-01T11:33:27.138Z,10.50
2018-10-01T11:35:55.499Z,10.50
2018-10-01T11:38:23.828Z,10.50
2018-10-01T11:40:52.187Z,10.60
2018-10-01T11:43:20.553Z,10.60
2018-10-01T11:45:48.943Z,10.60
2018-10-01T11:48:17.270Z,10.70
2018-10-01T11:50:45.634Z,10.70
2018-10-01T11:53:14.002Z,10.70
2018-10-01T11:55:42.325Z,10.80
2018-10-01T11:58:10.706Z,10.80
2018-10-01T12:00:39.065Z,10.90
2018-10-01T12:03:07.454Z,11.00
2018-10-01T12:05:35.809Z,11.00
2018-10-01T12:08:04.334Z,11.00
2018-10-01T12:10:32.759Z,11.00
2018-10-01T12:13:01.054Z,11.00
2018-10-01T12:15:29.431Z,11.00
2018-10-01T12:17:57.791Z,11.00
2018-10-01T12:20:26.125Z,11.00
2018-10-01T12:22:54.500Z,11.00
2018-10-01T12:25:22.848Z,11.00
2018-10-01T12:27:51.220Z,10.90
2018-10-01T12:30:19.563Z,10.90
2018-10-01T12:32:47.932Z,10.90
2018-10-01T12:35:16.265Z,11.00
2018-10-01T12:37:44.636Z,11.10
2018-10-01T12:40:12.967Z,11.10
2018-10-01T12:42:41.336Z,11.20
2018-10-01T12:45:09.692Z,11.20
2018-10-01T12:47:38.345Z,11.20
2018-10-01T12:50:06.751Z,11.10
2018-10-01T12:52:35.116Z,11.00
2018-10-01T12:55:03.443Z,11.00
2018-10-01T12:57:31.851Z,10.90
2018-10-01T13:00:00.201Z,10.90
2018-10-01T13:02:28.568Z,11.00
2018-10-01T13:04:56.945Z,11.00
2018-10-01T13:07:25.288Z,11.10
2018-10-01T13:09:53.621Z,11.10
2018-10-01T13:12:22.057Z,11.10
2018-10-01T13:14:50.335Z,11.10
2018-10-01T13:17:18.724Z,11.20
2018-10-01T13:19:47.060Z,11.30
2018-10-01T13:22:15.424Z,11.30
2018-10-01T13:24:43.894Z,11.30
2018-10-01T13:27:12.135Z,11.20
2018-10-01T13:29:40.483Z,11.20
2018-10-01T13:32:08.879Z,11.30
2018-10-01T13:34:37.238Z,11.40
2018-10-01T13:37:05.671Z,11.40
2018-10-01T13:39:34.028Z,11.50
2018-10-01T13:42:02.397Z,11.60
2018-10-01T13:44:30.857Z,11.60
2018-10-01T13:46:59.112Z,11.60
2018-10-01T13:49:27.505Z,11.50
2018-10-01T13:51:55.861Z,11.40
2018-10-01T13:54:24.224Z,11.40
2018-10-01T13:56:52.569Z,11.30
2018-10-01T13:59:20.925Z,11.20
2018-10-01T14:01:49.252Z,11.10
2018-10-01T14:04:17.637Z,10.90
2018-10-01T14:06:45.972Z,10.70
2018-10-01T14:09:14.346Z,10.50
2018-10-01T14:11:42.697Z,10.40
2018-10-01T14:14:11.059Z,10.40
2018-10-01T14:16:39.516Z,10.30
2018-10-01T14:19:07.887Z,10.30
2018-10-01T14:21:36.225Z,10.20
2018-10-01T14:24:04.616Z,10.20
2018-10-01T14:26:32.958Z,10.20
2018-10-01T14:29:01.324Z,10.00
2018-10-01T14:31:29.661Z,10.00
2018-10-01T14:33:58.044Z,10.00
2018-10-01T14:36:26.406Z,9.90
2018-10-01T14:38:54.772Z,9.90
2018-10-01T14:41:23.108Z,10.00
2018-10-01T14:43:51.552Z,10.00
2018-10-01T14:46:20.002Z,10.10
2018-10-01T14:48:48.379Z,10.10
2018-10-01T14:51:16.818Z,10.20
2018-10-01T14:53:45.192Z,10.30
2018-10-01T14:56:13.520Z,10.30
2018-10-01T14:58:41.893Z,10.40
2018-10-01T15:01:10.236Z,10.50
2018-10-01T15:03:38.647Z,10.60
2018-10-01T15:06:07.164Z,10.60
2018-10-01T15:08:35.532Z,10.70
2018-10-01T15:11:03.956Z,10.70
2018-10-01T15:13:32.301Z,10.70
2018-10-01T15:16:00.669Z,10.70
2018-10-01T15:18:29.098Z,10.60
2018-10-01T15:20:57.617Z,10.60
2018-10-01T15:23:26.008Z,10.60
2018-10-01T15:25:54.396Z,10.60
2018-10-01T15:28:22.767Z,10.60
2018-10-01T15:30:51.101Z,10.60
2018-10-01T15:33:19.488Z,10.60
2018-10-01T15:35:47.821Z,10.60
2018-10-01T15:38:16.332Z,10.60
2018-10-01T15:40:44.707Z,10.60
2018-10-01T15:43:13.036Z,10.60
2018-10-01T15:45:41.406Z,10.60
2018-10-01T15:48:09.755Z,10.70
2018-10-01T15:50:38.124Z,10.70
2018-10-01T15:53:06.496Z,10.80
2018-10-01T15:55:34.892Z,10.90
2018-10-01T15:58:03.239Z,10.90
2018-10-01T16:00:31.635Z,10.90
2018-10-01T16:02:59.989Z,11.00
2018-10-01T16:05:28.361Z,11.00
2018-10-01T16:07:56.700Z,11.00
2018-10-01T16:10:25.068Z,11.00
2018-10-01T16:12:53.416Z,11.00
2018-10-01T16:15:21.796Z,11.00
2018-10-01T16:17:50.148Z,11.00
2018-10-01T16:20:18.518Z,11.00
2018-10-01T16:22:46.859Z,11.00
2018-10-01T16:27:48.983Z,10.60
2018-10-01T16:30:17.348Z,10.40
2018-10-01T16:32:45.678Z,10.20
2018-10-01T16:35:14.040Z,10.00
2018-10-01T16:37:42.376Z,9.90
2018-10-01T16:40:10.809Z,9.70
2018-10-01T16:47:46.518Z,9.40
2018-10-01T16:50:14.891Z,9.30
2018-10-01T16:52:43.223Z,9.30
2018-10-01T16:55:11.585Z,9.20
2018-10-01T16:57:39.956Z,9.20
2018-10-01T17:00:08.332Z,9.10
2018-10-01T17:02:36.712Z,9.10
2018-10-01T17:05:05.476Z,9.00
2018-10-01T17:07:34.092Z,9.00
2018-10-01T17:10:02.472Z,9.00
2018-10-01T17:12:30.820Z,8.90
2018-10-01T17:14:59.172Z,8.90
2018-10-01T17:17:27.515Z,8.90
2018-10-01T17:19:55.892Z,8.80
2018-10-01T17:22:24.225Z,8.80
2018-10-01T17:24:52.616Z,8.70
2018-10-01T17:27:20.960Z,8.70
2018-10-01T17:29:49.322Z,8.60
2018-10-01T17:32:17.673Z,8.60
2018-10-01T17:34:46.085Z,8.60
2018-10-01T17:37:14.420Z,8.60
2018-10-01T17:39:42.797Z,8.60
2018-10-01T17:42:11.125Z,8.60
2018-10-01T17:44:39.485Z,8.50
2018-10-01T17:47:07.812Z,8.50
2018-10-01T17:49:36.140Z,8.50
2018-10-01T17:52:04.512Z,8.40
2018-10-01T17:54:32.845Z,8.40
2018-10-01T17:57:01.300Z,8.40
2018-10-01T17:59:29.648Z,8.30
2018-10-01T18:01:58.045Z,8.30
2018-10-01T18:04:26.456Z,8.20
2018-10-01T18:06:54.756Z,8.20
2018-10-01T18:09:23.089Z,8.10
2018-10-01T18:11:51.487Z,8.10
2018-10-01T18:14:19.817Z,8.10
2018-10-01T18:16:48.197Z,8.10
2018-10-01T18:19:16.572Z,8.10
2018-10-01T18:21:44.993Z,8.10
2018-10-01T18:24:13.386Z,8.00
2018-10-01T18:26:41.763Z,8.00
2018-10-01T18:29:10.088Z,7.90
2018-10-01T18:31:38.456Z,7.90
2018-10-01T18:34:06.785Z,7.80
2018-10-01T18:36:35.169Z,7.80
2018-10-01T18:39:05.737Z,7.70
2018-10-01T18:41:34.089Z,7.70
2018-10-01T18:44:02.420Z,7.70
2018-10-01T18:46:30.796Z,7.70
2018-10-01T18:48:59.195Z,7.80
2018-10-01T18:51:27.557Z,7.70
2018-10-01T18:53:55.906Z,7.70
2018-10-01T18:56:24.271Z,7.70
2018-10-01T18:58:52.597Z,7.70
2018-10-01T19:01:20.952Z,7.70
2018-10-01T19:03:49.352Z,7.70
2018-10-01T19:06:17.789Z,7.70
2018-10-01T19:08:46.065Z,7.70
2018-10-01T19:11:14.437Z,7.60
2018-10-01T19:13:42.868Z,7.60
2018-10-01T19:16:11.233Z,7.60
2018-10-01T19:18:39.568Z,7.60
2018-10-01T19:21:08.004Z,7.60
2018-10-01T19:23:36.628Z,7.60
2018-10-01T19:26:05.015Z,7.60
2018-10-01T19:28:33.385Z,7.60
2018-10-01T19:31:01.760Z,7.60
2018-10-01T19:33:30.379Z,7.60
2018-10-01T19:35:58.791Z,7.60
2018-10-01T19:38:27.103Z,7.60
2018-10-01T19:40:55.481Z,7.60
2018-10-01T19:43:23.954Z,7.50
2018-10-01T19:45:52.300Z,7.50
2018-10-01T19:48:20.662Z,7.50
2018-10-01T19:50:49.098Z,7.50
2018-10-01T19:53:17.434Z,7.40
2018-10-01T19:55:45.819Z,7.40
2018-10-01T19:58:14.296Z,7.40
2018-10-01T20:00:42.753Z,7.40
2018-10-01T20:03:11.087Z,7.30
2018-10-01T20:05:39.416Z,7.30
2018-10-01T20:08:07.784Z,7.20
2018-10-01T20:10:36.132Z,7.20
2018-10-01T20:13:04.884Z,7.20
2018-10-01T20:15:33.232Z,7.20
2018-10-01T20:18:01.604Z,7.10
2018-10-01T20:20:29.941Z,7.10
2018-10-01T20:22:58.365Z,7.10
2018-10-01T20:25:26.720Z,7.10
2018-10-01T20:27:55.156Z,7.10
2018-10-01T20:30:23.563Z,7.10
2018-10-01T20:32:51.835Z,7.00
2018-10-01T20:35:20.232Z,7.00
2018-10-01T20:37:48.659Z,7.00
2018-10-01T20:40:16.977Z,7.00
2018-10-01T20:42:45.365Z,7.10
2018-10-01T20:45:13.692Z,7.00
2018-10-01T20:47:42.180Z,7.10
2018-10-01T20:50:10.652Z,7.10
2018-10-01T20:52:39.032Z,7.10
2018-10-01T20:55:07.410Z,7.00
2018-10-01T20:57:35.790Z,7.00
2018-10-01T21:00:04.180Z,7.00
2018-10-01T21:02:32.582Z,7.00
2018-10-01T21:05:00.965Z,7.00
2018-10-01T21:07:29.332Z,6.90
2018-10-01T21:09:57.661Z,6.90
2018-10-01T21:12:26.021Z,6.90
2018-10-01T21:14:54.396Z,6.90
2018-10-01T21:17:22.756Z,6.90
2018-10-01T21:19:51.081Z,6.90
2018-10-01T21:22:19.477Z,6.90
2018-10-01T21:24:47.897Z,7.00
2018-10-01T21:27:16.268Z,6.90
2018-10-01T21:29:44.612Z,6.90
2018-10-01T21:32:13.053Z,6.90
2018-10-01T21:34:41.460Z,6.90
2018-10-01T21:37:09.843Z,6.90
2018-10-01T21:39:50.108Z,6.90
2018-10-01T21:42:18.476Z,6.90
2018-10-01T21:44:46.805Z,6.80
2018-10-01T21:47:15.177Z,6.80
2018-10-01T21:49:43.508Z,6.80
2018-10-01T21:52:11.837Z,6.80
2018-10-01T21:54:40.208Z,6.80
2018-10-01T21:57:08.686Z,6.70
2018-10-01T21:59:37.074Z,6.70
2018-10-01T22:02:05.788Z,6.70
2018-10-01T22:04:34.321Z,6.70
2018-10-01T22:07:02.686Z,6.70
2018-10-01T22:09:31.044Z,6.70
2018-10-01T22:11:59.368Z,6.70
2018-10-01T22:14:27.731Z,6.70
2018-10-01T22:16:56.061Z,6.70
2018-10-01T22:19:24.421Z,6.70
2018-10-01T22:21:52.789Z,6.70
2018-10-01T22:24:21.178Z,6.70
2018-10-01T22:26:49.609Z,6.70
2018-10-01T22:29:17.953Z,6.70
2018-10-01T22:31:46.292Z,6.70
2018-10-01T22:34:14.655Z,6.70
2018-10-01T22:36:42.980Z,6.70
2018-10-01T22:39:11.341Z,6.70
2018-10-01T22:41:39.690Z,6.70
2018-10-01T22:44:08.284Z,6.70
2018-10-01T22:46:36.764Z,6.70
2018-10-01T22:49:05.132Z,6.70
2018-10-01T22:51:33.464Z,6.70
2018-10-01T22:54:01.844Z,6.70
2018-10-01T22:56:30.772Z,6.70
2018-10-01T22:58:59.224Z,6.70
2018-10-01T23:01:27.657Z,6.60
2018-10-01T23:03:56.077Z,6.60
2018-10-01T23:06:24.810Z,6.60
2018-10-01T23:08:53.181Z,6.60
2018-10-01T23:11:21.530Z,6.50
2018-10-01T23:13:49.880Z,6.50
2018-10-01T23:16:18.421Z,6.50
2018-10-01T23:18:46.784Z,6.40
2018-10-01T23:21:15.112Z,6.40
2018-10-01T23:23:43.468Z,6.40
2018-10-01T23:26:11.796Z,6.30
2018-10-01T23:28:40.153Z,6.30
2018-10-01T23:31:08.493Z,6.30
2018-10-01T23:33:36.880Z,6.30
2018-10-01T23:36:05.217Z,6.20
2018-10-01T23:38:33.773Z,6.20
2018-10-01T23:41:01.959Z,6.20
2018-10-01T23:43:30.323Z,6.20
2018-10-01T23:45:58.649Z,6.10
2018-10-01T23:48:27.100Z,6.10
2018-10-01T23:50:55.418Z,6.10
2018-10-01T23:53:23.743Z,6.00
2018-10-01T23:55:52.102Z,6.00
2018-10-01T23:58:20.424Z,6.00
